Time;durP1;ratioP1;P1;durP2;ratioP2;P2;SDS_P1;SDS_P2;PMS_P1;PMS_P2;Temp;Humidity;BMP_temperature;BMP_pressure;BME280_temperature;BME280_humidity;BME280_pressure;Samples;Min_cycle;Max_cycle;Signal;HPM_P1;HPM_P2
2022/12/02 00:00:50;;;;;;;11.52;5.95;;;4.30;99.90;;;;;;4972532;28;20060;-74
2022/12/02 00:03:20;;;;;;;12.05;5.82;;;4.40;99.90;;;;;;4972406;28;20027;-74
2022/12/02 00:05:49;;;;;;;10.35;5.10;;;4.30;99.90;;;;;;4970035;28;20358;-73
2022/12/02 00:08:27;;;;;;;13.70;6.85;;;4.20;99.90;;;;;;4972530;28;20045;-75
2022/12/02 00:10:55;;;;;;;11.82;5.05;;;4.30;99.90;;;;;;4972502;28;20034;-72
2022/12/02 00:13:47;;;;;;;8.63;5.30;;;4.30;99.90;;;;;;4972306;28;20030;-72
2022/12/02 00:16:22;;;;;;;12.30;5.60;;;4.30;99.90;;;;;;4953295;28;20077;-72
2022/12/02 00:18:50;;;;;;;9.18;5.30;;;4.30;99.90;;;;;;4976185;28;20053;-72
2022/12/02 00:21:17;;;;;;;12.15;5.78;;;4.20;99.90;;;;;;4942350;29;20019;-71
2022/12/02 00:23:43;;;;;;;7.95;4.80;;;4.30;99.90;;;;;;4966056;28;20053;-74
2022/12/02 00:26:09;;;;;;;10.98;5.50;;;4.30;99.90;;;;;;4974704;28;20034;-74
2022/12/02 00:28:34;;;;;;;13.32;6.40;;;4.30;99.90;;;;;;4974833;28;20039;-74
2022/12/02 00:31:01;;;;;;;15.18;6.07;;;4.30;99.90;;;;;;4975678;28;20027;-73
2022/12/02 00:33:29;;;;;;;13.98;6.53;;;4.30;99.90;;;;;;4976194;28;20026;-74
2022/12/02 00:35:54;;;;;;;12.57;6.65;;;4.20;99.90;;;;;;4976480;28;20424;-74
2022/12/02 00:38:20;;;;;;;8.93;5.55;;;4.30;99.90;;;;;;4976264;28;20157;-75
2022/12/02 00:40:46;;;;;;;13.45;7.15;;;4.20;99.90;;;;;;4976216;28;20050;-74
2022/12/02 00:48:41;;;;;;;15.60;8.63;;;4.20;99.90;;;;;;4975874;28;20085;-74
2022/12/02 00:51:07;;;;;;;13.23;6.85;;;4.20;99.90;;;;;;4958739;28;20058;-73
2022/12/02 00:53:33;;;;;;;13.52;6.72;;;4.20;99.90;;;;;;4958358;28;20030;-73
2022/12/02 00:55:59;;;;;;;11.60;6.20;;;4.20;99.90;;;;;;4975824;28;20034;-73
2022/12/02 00:58:25;;;;;;;11.25;5.82;;;4.20;99.90;;;;;;4975743;28;20089;-73
2022/12/02 01:00:51;;;;;;;10.65;5.85;;;4.20;99.90;;;;;;4959334;28;20452;-74
2022/12/02 01:03:17;;;;;;;12.38;5.25;;;4.20;99.90;;;;;;4960530;28;20038;-74
2022/12/02 01:05:47;;;;;;;15.40;6.13;;;4.20;99.90;;;;;;4960455;28;20015;-74
2022/12/02 01:08:13;;;;;;;11.75;6.13;;;4.10;99.90;;;;;;4961304;28;20042;-72
2022/12/02 01:10:39;;;;;;;11.77;6.28;;;4.10;99.90;;;;;;4957495;28;20428;-74
2022/12/02 01:13:05;;;;;;;10.73;5.65;;;4.10;99.90;;;;;;4958120;28;20086;-72
2022/12/02 01:15:31;;;;;;;11.23;5.60;;;4.00;99.90;;;;;;4989848;28;20119;-74
2022/12/02 01:17:59;;;;;;;10.07;5.65;;;4.10;99.90;;;;;;4975586;28;20038;-74
2022/12/02 01:20:25;;;;;;;8.82;4.85;;;4.10;99.90;;;;;;4957958;28;20043;-74
2022/12/02 01:22:51;;;;;;;9.95;5.07;;;4.10;99.90;;;;;;4975557;28;20121;-73
2022/12/02 01:25:17;;;;;;;11.82;5.68;;;4.10;99.90;;;;;;4957793;28;20027;-74
2022/12/02 01:27:42;;;;;;;11.90;4.80;;;4.10;99.90;;;;;;4975219;28;20393;-75
2022/12/02 01:30:09;;;;;;;11.48;5.57;;;4.10;99.90;;;;;;4957673;28;20485;-74
2022/12/02 01:32:34;;;;;;;10.68;5.80;;;4.10;99.90;;;;;;4974847;28;20477;-74
2022/12/02 01:35:00;;;;;;;11.82;5.60;;;4.10;99.90;;;;;;4974815;28;20031;-74
2022/12/02 01:37:26;;;;;;;10.57;5.05;;;4.10;99.90;;;;;;4975251;28;20019;-74
2022/12/02 01:39:52;;;;;;;11.02;5.78;;;4.20;99.90;;;;;;4975275;28;20449;-73
2022/12/02 01:42:18;;;;;;;11.82;6.03;;;4.00;99.90;;;;;;4975228;28;20022;-74
2022/12/02 01:44:44;;;;;;;11.25;5.50;;;4.10;99.90;;;;;;4975153;28;20027;-74
2022/12/02 01:47:10;;;;;;;12.75;6.80;;;4.00;99.90;;;;;;4983330;28;20105;-73
2022/12/02 01:49:35;;;;;;;10.73;5.82;;;4.10;99.90;;;;;;4975187;28;20038;-74
2022/12/02 01:52:01;;;;;;;13.27;6.15;;;4.10;99.90;;;;;;4974665;28;20014;-73
2022/12/02 01:54:28;;;;;;;10.07;4.80;;;4.10;99.90;;;;;;4957154;28;20101;-75
2022/12/02 01:56:54;;;;;;;10.30;5.70;;;4.10;99.90;;;;;;4974758;28;20034;-75
2022/12/02 01:59:21;;;;;;;10.15;5.22;;;4.20;99.90;;;;;;4973888;28;20062;-74
2022/12/02 02:01:47;;;;;;;13.25;5.97;;;4.20;99.90;;;;;;4974269;28;20027;-73
2022/12/02 02:04:13;;;;;;;10.70;5.03;;;4.30;99.90;;;;;;4974711;28;20026;-74
2022/12/02 02:06:43;;;;;;;9.23;5.18;;;4.20;99.90;;;;;;4958869;29;20769;-74
2022/12/02 02:09:09;;;;;;;10.82;5.35;;;4.20;99.90;;;;;;4954554;28;20035;-73
2022/12/02 02:11:36;;;;;;;11.38;5.68;;;4.20;99.90;;;;;;4957447;28;20023;-74
2022/12/02 02:14:04;;;;;;;10.10;5.30;;;4.10;99.90;;;;;;4955548;28;20041;-74
2022/12/02 02:16:31;;;;;;;10.70;5.07;;;4.20;99.90;;;;;;4960124;28;20492;-74
2022/12/02 02:18:57;;;;;;;8.65;4.65;;;4.20;99.90;;;;;;4955883;28;20034;-74
2022/12/02 02:21:28;;;;;;;9.30;4.80;;;4.10;99.90;;;;;;4957372;28;20041;-73
2022/12/02 02:23:55;;;;;;;9.50;5.10;;;4.20;99.90;;;;;;4972934;28;20033;-74
2022/12/02 02:26:21;;;;;;;11.57;4.82;;;4.20;99.90;;;;;;4957457;28;20073;-74
2022/12/02 02:28:48;;;;;;;8.48;5.10;;;4.20;99.90;;;;;;4972383;28;20047;-73
2022/12/02 02:31:15;;;;;;;11.07;4.68;;;4.10;99.90;;;;;;4955534;28;20030;-73
2022/12/02 02:33:43;;;;;;;9.98;5.10;;;4.10;99.90;;;;;;4954913;28;20031;-74
2022/12/02 02:36:10;;;;;;;9.27;4.95;;;4.10;99.90;;;;;;4955610;28;20033;-74
2022/12/02 02:38:36;;;;;;;7.22;4.20;;;4.10;99.90;;;;;;4955403;28;20025;-74
2022/12/02 02:41:03;;;;;;;11.38;4.82;;;4.10;99.90;;;;;;4956059;28;20023;-74
2022/12/02 02:43:30;;;;;;;9.40;4.93;;;4.20;99.90;;;;;;4951445;28;20035;-74
2022/12/02 02:45:58;;;;;;;9.70;4.55;;;4.10;99.90;;;;;;4987538;28;20069;-74
2022/12/02 02:48:30;;;;;;;9.10;4.90;;;4.10;99.90;;;;;;4972476;28;20403;-75
2022/12/02 02:50:56;;;;;;;9.20;4.60;;;4.10;99.90;;;;;;4955168;28;20070;-74
2022/12/02 02:53:25;;;;;;;9.68;4.55;;;4.10;99.90;;;;;;4952439;28;20023;-72
2022/12/02 02:55:54;;;;;;;9.93;4.70;;;4.10;99.90;;;;;;4955778;28;20528;-74
2022/12/02 02:58:22;;;;;;;9.68;4.85;;;4.00;99.90;;;;;;4972108;28;20149;-72
2022/12/02 03:01:04;;;;;;;9.75;4.93;;;4.10;99.90;;;;;;4956423;28;20481;-74
2022/12/02 03:03:37;;;;;;;7.25;4.38;;;3.90;99.90;;;;;;4956508;28;20138;-76
2022/12/02 03:06:06;;;;;;;10.73;5.55;;;4.00;99.90;;;;;;4988427;28;20034;-72
2022/12/02 03:08:32;;;;;;;8.13;5.05;;;4.10;99.90;;;;;;4973397;28;20037;-71
2022/12/02 03:11:00;;;;;;;10.45;5.38;;;4.00;99.90;;;;;;4956230;28;20104;-71
2022/12/02 03:13:30;;;;;;;12.07;6.50;;;4.10;99.90;;;;;;4973112;28;20534;-74
2022/12/02 03:15:56;;;;;;;12.82;6.32;;;4.10;99.90;;;;;;4973246;28;20022;-72
2022/12/02 03:18:22;;;;;;;13.25;6.50;;;4.10;99.90;;;;;;4973486;28;20031;-72
2022/12/02 03:20:48;;;;;;;18.10;9.77;;;4.10;99.90;;;;;;4973381;28;20018;-72
2022/12/02 03:23:14;;;;;;;12.63;5.38;;;4.10;99.90;;;;;;4955859;28;20042;-73
2022/12/02 03:25:41;;;;;;;9.90;5.55;;;4.10;99.90;;;;;;4973179;28;20082;-74
2022/12/02 03:28:06;;;;;;;11.82;5.30;;;4.10;99.90;;;;;;4972928;28;20089;-73
2022/12/02 03:30:32;;;;;;;8.63;4.60;;;4.10;99.90;;;;;;4972936;28;20030;-74
2022/12/02 03:32:58;;;;;;;9.32;4.63;;;4.10;99.90;;;;;;4972957;28;20421;-74
2022/12/02 03:35:25;;;;;;;9.77;5.60;;;4.20;99.90;;;;;;4973328;28;20030;-73
2022/12/02 03:37:51;;;;;;;14.95;7.07;;;4.10;99.90;;;;;;4973079;28;20027;-74
2022/12/02 03:40:17;;;;;;;14.18;6.18;;;4.10;99.90;;;;;;4972852;28;20478;-74
2022/12/02 03:42:43;;;;;;;17.85;9.73;;;4.20;99.90;;;;;;4973040;28;20029;-73
2022/12/02 03:45:11;;;;;;;14.02;7.25;;;4.00;99.90;;;;;;4972993;28;20114;-74
2022/12/02 03:47:37;;;;;;;16.60;8.43;;;4.10;99.90;;;;;;4972845;28;20093;-74
2022/12/02 03:50:04;;;;;;;11.50;5.57;;;4.10;99.90;;;;;;4972643;28;20471;-74
2022/12/02 03:52:29;;;;;;;9.68;5.53;;;4.00;99.90;;;;;;4973031;28;20081;-74
2022/12/02 03:54:56;;;;;;;13.65;5.00;;;4.00;99.90;;;;;;4973344;28;20113;-74
2022/12/02 03:57:22;;;;;;;10.80;5.95;;;4.00;99.90;;;;;;4972630;28;20031;-75
2022/12/02 03:59:48;;;;;;;9.02;4.60;;;4.00;99.90;;;;;;4972402;28;20039;-74
2022/12/02 04:02:14;;;;;;;8.90;4.53;;;4.00;99.90;;;;;;4972662;28;20042;-74
2022/12/02 04:04:40;;;;;;;7.82;4.22;;;4.10;99.90;;;;;;4972645;28;20035;-74
2022/12/02 04:07:05;;;;;;;8.52;4.38;;;4.00;99.90;;;;;;4972532;28;20042;-74
2022/12/02 04:09:31;;;;;;;9.50;4.32;;;4.00;99.90;;;;;;4972674;28;20043;-74
2022/12/02 04:11:57;;;;;;;5.88;3.90;;;4.00;99.90;;;;;;4972625;28;20377;-74
2022/12/02 04:14:23;;;;;;;13.63;6.85;;;4.00;99.90;;;;;;4972427;28;20031;-74
2022/12/02 04:16:49;;;;;;;12.50;5.72;;;4.00;99.90;;;;;;4972556;28;20038;-73
2022/12/02 04:19:14;;;;;;;17.95;8.35;;;4.00;99.90;;;;;;4972235;28;20037;-74
2022/12/02 04:21:41;;;;;;;19.60;5.13;;;4.00;99.90;;;;;;4972669;28;20049;-74
2022/12/02 04:24:07;;;;;;;16.23;8.10;;;4.00;99.90;;;;;;4972683;28;20023;-73
2022/12/02 04:26:32;;;;;;;12.77;6.93;;;4.00;99.90;;;;;;4972484;28;20085;-74
2022/12/02 04:28:58;;;;;;;16.92;8.05;;;3.90;99.90;;;;;;4972129;28;20042;-74
2022/12/02 04:31:24;;;;;;;9.18;4.55;;;3.90;99.90;;;;;;4972232;28;20536;-74
2022/12/02 04:33:50;;;;;;;8.88;4.70;;;4.00;99.90;;;;;;4972292;28;20042;-75
2022/12/02 04:36:16;;;;;;;10.65;5.63;;;4.00;99.90;;;;;;4972289;28;20033;-73
2022/12/02 04:38:42;;;;;;;11.45;6.10;;;4.00;99.90;;;;;;4972304;28;20031;-73
2022/12/02 04:41:07;;;;;;;6.47;3.47;;;4.00;99.90;;;;;;4954576;28;20039;-72
2022/12/02 04:43:33;;;;;;;10.82;4.75;;;4.00;99.90;;;;;;4972320;28;20030;-74
2022/12/02 04:45:59;;;;;;;11.07;6.05;;;4.10;99.90;;;;;;4954648;28;20033;-73
2022/12/02 04:48:25;;;;;;;16.73;8.43;;;4.10;99.90;;;;;;4972186;28;20042;-73
2022/12/02 04:50:50;;;;;;;8.98;4.90;;;4.00;99.90;;;;;;4972320;28;20373;-74
2022/12/02 04:53:16;;;;;;;13.40;5.70;;;4.00;99.90;;;;;;4972311;28;20367;-73
2022/12/02 04:55:45;;;;;;;12.20;4.93;;;4.00;99.90;;;;;;4972033;28;20023;-74
2022/12/02 04:58:11;;;;;;;11.05;7.07;;;4.10;99.90;;;;;;4971102;28;20520;-74
2022/12/02 05:00:37;;;;;;;17.05;8.18;;;4.00;99.90;;;;;;4986615;28;20046;-74
2022/12/02 05:03:03;;;;;;;12.93;5.93;;;4.00;99.90;;;;;;4971758;28;20421;-75
2022/12/02 05:05:29;;;;;;;12.07;5.93;;;4.00;99.90;;;;;;4971597;28;20086;-75
2022/12/02 05:07:54;;;;;;;11.25;5.25;;;4.00;99.90;;;;;;4973540;28;20113;-74
2022/12/02 05:10:20;;;;;;;18.38;7.75;;;3.90;99.90;;;;;;4975565;28;20371;-74
2022/12/02 05:12:46;;;;;;;16.45;8.27;;;3.90;99.90;;;;;;4975651;28;20093;-74
2022/12/02 05:15:13;;;;;;;10.32;6.13;;;3.90;99.90;;;;;;4975302;28;20057;-74
2022/12/02 05:17:38;;;;;;;15.93;7.65;;;3.90;99.90;;;;;;4974640;28;20026;-75
2022/12/02 05:20:05;;;;;;;14.30;6.07;;;4.00;99.90;;;;;;4975368;28;20034;-74
2022/12/02 05:22:30;;;;;;;19.50;9.75;;;3.90;99.90;;;;;;4975292;28;20027;-75
2022/12/02 05:24:56;;;;;;;13.43;7.70;;;3.90;99.90;;;;;;4975134;28;20037;-74
2022/12/02 05:27:22;;;;;;;23.77;11.15;;;3.90;99.90;;;;;;4974489;28;20030;-74
2022/12/02 05:29:48;;;;;;;18.42;8.85;;;4.00;99.90;;;;;;4975095;28;20031;-76
2022/12/02 05:32:14;;;;;;;19.50;8.50;;;3.90;99.90;;;;;;4974867;28;20094;-75
2022/12/02 05:34:40;;;;;;;8.57;4.60;;;3.90;99.90;;;;;;4961811;28;20496;-75
2022/12/02 05:37:05;;;;;;;10.88;6.20;;;3.90;99.90;;;;;;4975145;28;20063;-77
2022/12/02 05:39:31;;;;;;;10.18;5.55;;;3.90;99.90;;;;;;4974868;28;20022;-75
2022/12/02 05:42:04;;;;;;;12.60;6.93;;;4.00;99.90;;;;;;4975250;28;20023;-76
2022/12/02 05:44:35;;;;;;;12.02;5.93;;;4.00;99.90;;;;;;4974613;28;20589;-76
2022/12/02 05:47:09;;;;;;;11.65;6.00;;;4.00;99.90;;;;;;4956882;28;20081;-75
2022/12/02 05:49:36;;;;;;;;;;;4.00;99.90;;;;;;4975032;28;20117;-75
2022/12/02 05:52:14;;;;;;;6.93;4.35;;;4.00;99.90;;;;;;4974691;28;20396;-76
2022/12/02 05:54:40;;;;;;;23.63;14.13;;;4.00;99.90;;;;;;4974592;28;20050;-77
2022/12/02 05:57:09;;;;;;;12.60;5.70;;;4.00;99.90;;;;;;4974473;28;20518;-76
2022/12/02 05:59:35;;;;;;;8.23;4.57;;;4.00;99.90;;;;;;4953477;29;20047;-76
2022/12/02 06:02:01;;;;;;;16.55;11.15;;;4.00;99.90;;;;;;4954610;29;20390;-76
2022/12/02 06:04:31;;;;;;;10.40;6.05;;;4.00;99.90;;;;;;4955292;29;20122;-76
2022/12/02 06:07:07;;;;;;;7.07;4.28;;;4.00;99.90;;;;;;4954874;28;20031;-76
2022/12/02 06:09:33;;;;;;;11.85;5.70;;;4.00;99.90;;;;;;4955323;29;20397;-75
2022/12/02 06:12:02;;;;;;;8.25;4.43;;;4.00;99.90;;;;;;4952985;29;20038;-75
2022/12/02 06:14:31;;;;;;;5.78;3.20;;;4.00;99.90;;;;;;4954854;29;20470;-76
2022/12/02 06:17:00;;;;;;;8.48;4.70;;;4.00;99.90;;;;;;4954627;29;20027;-75
2022/12/02 06:19:41;;;;;;;5.10;3.28;;;4.10;99.90;;;;;;4953949;28;20039;-75
2022/12/02 06:22:29;;;;;;;10.80;5.03;;;4.10;99.90;;;;;;4954675;28;20027;-74
2022/12/02 06:24:56;;;;;;;10.02;5.65;;;4.10;99.90;;;;;;4954940;29;20039;-75
2022/12/02 06:27:22;;;;;;;6.65;4.05;;;4.10;99.90;;;;;;4954147;29;20023;-76
2022/12/02 06:30:00;;;;;;;8.23;3.13;;;4.10;99.90;;;;;;4958882;28;20102;-76
2022/12/02 06:32:41;;;;;;;5.40;3.17;;;4.10;99.90;;;;;;4954482;28;20031;-76
2022/12/02 06:35:30;;;;;;;8.18;3.55;;;4.10;99.90;;;;;;4954549;29;20121;-75
2022/12/02 06:37:59;;;;;;;5.20;3.13;;;4.10;99.90;;;;;;4954819;29;20347;-76
2022/12/02 06:40:30;;;;;;;6.90;3.85;;;4.20;99.90;;;;;;4954379;28;20015;-76
2022/12/02 06:43:01;;;;;;;6.25;3.63;;;4.20;99.90;;;;;;4953043;29;20106;-75
2022/12/02 06:45:32;;;;;;;9.50;4.13;;;4.20;99.90;;;;;;4953374;29;20514;-74
2022/12/02 06:48:16;;;;;;;7.60;4.68;;;4.30;99.90;;;;;;4954195;29;20111;-76
2022/12/02 06:50:45;;;;;;;12.90;6.20;;;4.30;99.90;;;;;;4954029;29;20486;-75
2022/12/02 06:53:35;;;;;;;5.93;3.45;;;4.40;99.90;;;;;;4954475;29;20023;-75
2022/12/02 06:56:06;;;;;;;5.80;3.67;;;4.40;99.90;;;;;;4954406;29;20038;-75
2022/12/02 06:58:36;;;;;;;6.95;3.63;;;4.40;99.90;;;;;;4961313;28;20494;-75
2022/12/02 07:01:30;;;;;;;7.65;4.07;;;4.30;99.90;;;;;;4972680;28;20031;-75
2022/12/02 07:04:31;;;;;;;9.27;5.00;;;4.30;99.90;;;;;;4973564;28;20037;-76
2022/12/02 07:07:00;;;;;;;10.82;5.05;;;4.40;99.90;;;;;;4966880;28;20031;-76
2022/12/02 07:09:36;;;;;;;14.40;5.70;;;4.30;99.90;;;;;;4973736;28;20358;-76
2022/12/02 07:12:09;;;;;;;9.43;4.82;;;4.30;99.90;;;;;;4973482;28;20026;-76
2022/12/02 07:14:50;;;;;;;9.55;4.78;;;4.20;99.90;;;;;;4974019;28;20027;-75
2022/12/02 07:17:28;;;;;;;10.93;5.70;;;4.40;99.90;;;;;;4973570;28;20035;-75
2022/12/02 07:20:06;;;;;;;10.60;5.72;;;4.40;99.90;;;;;;4973209;28;20038;-75
2022/12/02 07:22:39;;;;;;;8.55;4.88;;;4.30;99.90;;;;;;4970400;28;20035;-76
2022/12/02 07:25:08;;;;;;;7.70;4.03;;;4.30;99.90;;;;;;4970934;28;20487;-77
2022/12/02 07:27:39;;;;;;;6.07;3.80;;;4.40;99.90;;;;;;4972506;28;20042;-77
2022/12/02 07:30:31;;;;;;;11.77;7.60;;;4.50;99.90;;;;;;4972475;28;20046;-77
2022/12/02 07:32:58;;;;;;;21.23;11.80;;;4.40;99.90;;;;;;4951305;28;20441;-77
2022/12/02 07:35:24;;;;;;;23.85;12.15;;;4.50;99.90;;;;;;4970903;28;20023;-75
2022/12/02 07:37:51;;;;;;;29.73;15.18;;;4.40;99.90;;;;;;4972570;28;20039;-76
2022/12/02 07:40:17;;;;;;;28.27;16.20;;;4.40;99.90;;;;;;4972735;28;20026;-75
2022/12/02 07:42:44;;;;;;;18.60;9.75;;;4.40;99.90;;;;;;4970976;28;20042;-76
2022/12/02 07:45:14;;;;;;;19.23;8.30;;;4.50;99.90;;;;;;4972429;28;20358;-76
2022/12/02 07:47:40;;;;;;;14.48;7.43;;;4.60;99.90;;;;;;4972135;28;20122;-76
2022/12/02 07:50:07;;;;;;;17.20;8.95;;;4.60;99.90;;;;;;4971704;28;20051;-77
2022/12/02 07:52:33;;;;;;;10.23;5.63;;;4.50;99.90;;;;;;4972150;28;20023;-76
2022/12/02 07:55:00;;;;;;;14.30;7.93;;;4.60;99.90;;;;;;4972899;28;20022;-74
2022/12/02 07:57:26;;;;;;;13.13;6.57;;;4.50;99.90;;;;;;4972178;28;20469;-75
2022/12/02 07:59:52;;;;;;;14.30;8.10;;;4.50;99.90;;;;;;4971934;28;20142;-73
2022/12/02 08:02:17;;;;;;;10.88;5.45;;;4.60;99.90;;;;;;4955244;28;20058;-74
2022/12/02 08:04:43;;;;;;;15.48;7.47;;;4.60;99.90;;;;;;4971390;28;20050;-75
2022/12/02 08:07:09;;;;;;;14.68;7.53;;;4.70;99.90;;;;;;4971512;28;20019;-74
2022/12/02 08:09:35;;;;;;;10.85;5.97;;;4.70;99.90;;;;;;4970962;28;20039;-74
2022/12/02 08:12:01;;;;;;;13.25;6.43;;;4.60;99.90;;;;;;4971303;28;20023;-73
2022/12/02 08:14:27;;;;;;;16.17;8.32;;;4.70;99.90;;;;;;4954312;28;20050;-74
2022/12/02 08:16:52;;;;;;;6.68;4.30;;;4.70;99.90;;;;;;4971619;28;20031;-75
2022/12/02 08:19:18;;;;;;;8.95;4.82;;;4.80;99.90;;;;;;4971232;28;20597;-74
2022/12/02 08:21:44;;;;;;;13.05;7.15;;;4.90;99.90;;;;;;4971770;28;20019;-75
2022/12/02 08:24:10;;;;;;;15.57;7.35;;;4.90;99.90;;;;;;4972274;28;20039;-74
2022/12/02 08:26:36;;;;;;;8.32;4.15;;;5.00;99.90;;;;;;4972287;28;20031;-74
2022/12/02 08:29:02;;;;;;;8.23;5.05;;;5.00;99.90;;;;;;4971552;28;20043;-73
2022/12/02 08:31:28;;;;;;;14.90;6.88;;;5.00;99.90;;;;;;4955186;28;20433;-74
2022/12/02 08:33:54;;;;;;;11.85;5.97;;;5.10;99.90;;;;;;4972145;28;20062;-74
2022/12/02 08:36:21;;;;;;;15.25;6.82;;;4.90;99.90;;;;;;4972186;28;20038;-75
2022/12/02 08:38:47;;;;;;;10.30;5.60;;;4.90;99.90;;;;;;4972553;28;20477;-76
2022/12/02 08:41:14;;;;;;;9.93;4.78;;;5.00;99.90;;;;;;4971764;28;20014;-76
2022/12/02 08:43:41;;;;;;;14.18;6.40;;;5.10;99.90;;;;;;4974804;28;20030;-75
2022/12/02 08:46:07;;;;;;;10.68;5.70;;;5.00;99.90;;;;;;4975117;28;20028;-76
2022/12/02 08:48:33;;;;;;;15.70;7.20;;;5.10;99.90;;;;;;4975250;28;20412;-77
2022/12/02 08:50:59;;;;;;;8.68;4.47;;;5.20;99.90;;;;;;4975301;28;20103;-76
2022/12/02 08:53:25;;;;;;;9.70;5.07;;;5.10;99.90;;;;;;4974444;28;20085;-76
2022/12/02 08:55:51;;;;;;;8.60;4.20;;;5.10;99.90;;;;;;4973831;28;20042;-75
2022/12/02 08:58:17;;;;;;;19.65;8.68;;;5.20;99.90;;;;;;4972801;28;20047;-73
2022/12/02 09:00:43;;;;;;;16.83;8.35;;;5.20;99.90;;;;;;4975484;28;20393;-73
2022/12/02 09:03:10;;;;;;;19.65;10.45;;;5.00;99.90;;;;;;4974321;28;20023;-73
2022/12/02 09:05:37;;;;;;;14.20;6.78;;;5.20;99.90;;;;;;4955537;28;20493;-74
2022/12/02 09:08:04;;;;;;;11.02;5.47;;;5.20;99.90;;;;;;4973857;28;20031;-73
2022/12/02 09:10:30;;;;;;;15.45;7.50;;;5.20;99.90;;;;;;4974609;28;20019;-74
2022/12/02 09:12:56;;;;;;;14.18;6.85;;;5.20;99.90;;;;;;4978914;28;20162;-76
2022/12/02 09:15:22;;;;;;;10.82;5.07;;;5.30;99.90;;;;;;4975025;28;20113;-76
2022/12/02 09:17:48;;;;;;;16.00;8.57;;;5.50;99.90;;;;;;4975068;28;20026;-75
2022/12/02 09:20:16;;;;;;;7.90;4.35;;;5.60;99.90;;;;;;4975524;28;20505;-75
2022/12/02 09:22:44;;;;;;;17.83;8.77;;;5.60;99.90;;;;;;4975571;28;20019;-75
2022/12/02 09:25:11;;;;;;;16.05;7.95;;;5.40;99.90;;;;;;4957341;28;20104;-75
2022/12/02 09:27:37;;;;;;;18.48;9.05;;;5.40;99.90;;;;;;4972839;28;20477;-75
2022/12/02 09:30:03;;;;;;;9.98;5.13;;;5.40;99.90;;;;;;4973051;28;20039;-75
2022/12/02 09:32:29;;;;;;;10.70;5.13;;;5.60;99.90;;;;;;4973773;28;20019;-75
2022/12/02 09:34:55;;;;;;;15.65;8.05;;;5.70;99.90;;;;;;4972231;28;20029;-75
2022/12/02 09:37:21;;;;;;;16.15;7.47;;;5.60;99.90;;;;;;4974419;28;20122;-74
2022/12/02 09:39:47;;;;;;;13.10;5.75;;;5.50;99.90;;;;;;4974206;28;20734;-73
2022/12/02 09:42:14;;;;;;;11.75;5.75;;;5.50;99.90;;;;;;4974259;28;20151;-74
2022/12/02 09:44:42;;;;;;;11.30;6.78;;;5.70;99.90;;;;;;4974430;28;20278;-74
2022/12/02 09:47:09;;;;;;;13.50;7.03;;;5.70;99.90;;;;;;4975136;28;20026;-74
2022/12/02 09:49:35;;;;;;;10.55;5.53;;;5.80;99.90;;;;;;4974822;28;20122;-74
2022/12/02 09:52:03;;;;;;;12.65;6.30;;;5.90;99.90;;;;;;4975200;28;20026;-74
2022/12/02 09:54:29;;;;;;;13.77;7.15;;;6.00;99.90;;;;;;4974761;28;20033;-74
2022/12/02 09:56:56;;;;;;;25.30;11.82;;;6.10;99.90;;;;;;4974776;28;20126;-74
2022/12/02 09:59:22;;;;;;;20.23;12.30;;;6.10;99.90;;;;;;4974654;28;20039;-74
2022/12/02 10:01:49;;;;;;;18.65;12.32;;;6.10;99.90;;;;;;4974686;28;20041;-74
2022/12/02 10:04:19;;;;;;;20.25;11.68;;;6.20;99.90;;;;;;4974795;28;20058;-74
2022/12/02 10:06:46;;;;;;;18.60;9.73;;;6.40;99.90;;;;;;4974460;28;20097;-74
2022/12/02 10:09:41;;;;;;;12.27;7.10;;;6.50;99.90;;;;;;4974545;28;20046;-74
2022/12/02 10:12:10;;;;;;;15.55;8.25;;;6.50;99.90;;;;;;4877070;29;20444;-74
2022/12/02 10:14:36;;;;;;;16.67;8.63;;;6.20;99.90;;;;;;4877366;29;20057;-73
2022/12/02 10:17:14;;;;;;;12.13;5.88;;;6.10;99.90;;;;;;4877287;29;20037;-74
2022/12/02 10:19:40;;;;;;;32.55;17.27;;;6.20;99.90;;;;;;4877280;29;20068;-74
2022/12/02 10:22:20;;;;;;;23.83;12.88;;;6.20;99.90;;;;;;4878289;29;20190;-76
2022/12/02 10:24:47;;;;;;;15.40;8.93;;;6.40;99.90;;;;;;4877103;29;20037;-76
2022/12/02 10:27:28;;;;;;;24.17;12.77;;;6.50;99.90;;;;;;4877229;29;20061;-76
2022/12/02 10:29:54;;;;;;;16.98;8.10;;;6.60;99.90;;;;;;4876673;29;20052;-75
2022/12/02 10:32:26;;;;;;;17.92;9.80;;;6.50;99.90;;;;;;4876156;29;20141;-73
2022/12/02 10:35:10;;;;;;;24.48;14.25;;;6.60;99.90;;;;;;4879489;29;20078;-74
2022/12/02 10:37:37;;;;;;;26.25;15.02;;;6.60;99.90;;;;;;4882965;29;20041;-78
2022/12/02 10:40:29;;;;;;;41.03;25.70;;;6.70;99.90;;;;;;4878913;29;20032;-77
2022/12/02 10:43:09;;;;;;;21.98;12.57;;;6.70;99.90;;;;;;4872807;29;20485;-76
2022/12/02 10:45:35;;;;;;;16.70;9.85;;;6.80;99.90;;;;;;4875993;29;20033;-76
2022/12/02 10:48:21;;;;;;;20.50;11.43;;;6.90;99.90;;;;;;4905254;28;20051;-78
2022/12/02 10:50:47;;;;;;;15.18;8.50;;;7.00;99.90;;;;;;4973442;28;20065;-78
2022/12/02 10:53:16;;;;;;;15.98;8.70;;;6.90;99.90;;;;;;4978956;28;20409;-76
2022/12/02 10:55:44;;;;;;;25.02;14.05;;;6.90;99.90;;;;;;4981014;28;20031;-77
2022/12/02 10:58:14;;;;;;;15.85;8.45;;;6.90;99.90;;;;;;4973615;28;20389;-74
2022/12/02 11:00:40;;;;;;;21.55;9.40;;;7.00;99.90;;;;;;4971742;28;20724;-73
2022/12/02 11:03:09;;;;;;;13.50;6.93;;;7.10;99.90;;;;;;4972519;28;20026;-74
2022/12/02 11:05:36;;;;;;;14.77;7.10;;;6.80;99.90;;;;;;4971470;28;20026;-74
2022/12/02 11:08:18;;;;;;;15.45;7.85;;;6.70;99.90;;;;;;4973178;28;20019;-74
2022/12/02 11:10:46;;;;;;;12.43;6.78;;;6.70;99.90;;;;;;4959910;28;20030;-73
2022/12/02 11:13:11;;;;;;;12.68;7.07;;;6.80;99.90;;;;;;4973144;28;20118;-74
2022/12/02 11:15:37;;;;;;;12.65;6.43;;;6.90;99.90;;;;;;4973082;28;20109;-74
2022/12/02 11:18:05;;;;;;;11.88;6.03;;;6.80;99.90;;;;;;4972780;28;20030;-74
2022/12/02 11:20:39;;;;;;;16.88;8.55;;;6.70;99.90;;;;;;4972924;28;20089;-73
2022/12/02 11:23:13;;;;;;;14.50;7.95;;;7.00;99.90;;;;;;4973355;28;20107;-74
2022/12/02 11:25:42;;;;;;;17.10;9.10;;;7.00;99.90;;;;;;4972976;28;20045;-73
2022/12/02 11:28:18;;;;;;;23.70;12.93;;;7.20;99.90;;;;;;4972124;28;20077;-74
2022/12/02 11:31:07;;;;;;;11.82;5.90;;;7.40;99.90;;;;;;4972387;28;20023;-74
2022/12/02 11:33:42;;;;;;;16.13;7.15;;;7.30;99.90;;;;;;4987279;28;20370;-76
2022/12/02 11:36:08;;;;;;;20.67;8.60;;;7.40;99.90;;;;;;4971578;28;20110;-75
2022/12/02 11:38:52;;;;;;;12.95;6.00;;;7.60;99.90;;;;;;4972123;28;20106;-74
2022/12/02 11:41:22;;;;;;;12.23;7.03;;;7.70;99.90;;;;;;4973040;28;20031;-75
2022/12/02 11:44:08;;;;;;;12.50;6.68;;;7.60;99.90;;;;;;4971818;28;20426;-76
2022/12/02 11:46:46;;;;;;;16.10;8.45;;;7.40;99.90;;;;;;4972348;28;20034;-77
2022/12/02 11:49:31;;;;;;;12.65;6.82;;;7.50;99.90;;;;;;4972546;28;20039;-75
2022/12/02 11:52:07;;;;;;;15.23;7.18;;;7.50;99.90;;;;;;4971843;28;20413;-77
2022/12/02 11:54:42;;;;;;;15.00;8.13;;;7.70;99.90;;;;;;4972352;28;20027;-74
2022/12/02 11:57:26;;;;;;;19.80;10.80;;;7.90;99.90;;;;;;4972877;28;20473;-75
2022/12/02 11:59:52;;;;;;;13.68;8.05;;;7.90;99.90;;;;;;4971133;28;20043;-75
2022/12/02 12:02:20;;;;;;;15.10;7.78;;;7.80;99.90;;;;;;4971029;28;20545;-73
2022/12/02 12:05:02;;;;;;;15.20;7.18;;;7.90;99.90;;;;;;4970176;28;20477;-74
2022/12/02 12:07:50;;;;;;;13.43;8.00;;;7.90;99.90;;;;;;4968334;28;20065;-74
2022/12/02 12:11:07;;;;;;;16.77;8.95;;;8.00;99.90;;;;;;4952486;28;20027;-74
2022/12/02 12:13:34;;;;;;;19.15;11.40;;;8.10;99.90;;;;;;4930171;29;20568;-74
2022/12/02 12:16:01;;;;;;;20.77;10.25;;;7.90;99.90;;;;;;4948749;29;20027;-74
2022/12/02 12:18:40;;;;;;;18.58;7.82;;;7.70;99.90;;;;;;4949388;29;20035;-76
2022/12/02 12:21:07;;;;;;;20.90;10.02;;;7.60;99.90;;;;;;4949574;29;20079;-76
2022/12/02 12:23:39;;;;;;;20.40;10.07;;;7.60;99.90;;;;;;4949905;29;20039;-76
2022/12/02 12:26:06;;;;;;;18.50;7.15;;;7.50;99.90;;;;;;4950608;29;20135;-75
2022/12/02 12:28:34;;;;;;;12.43;7.00;;;7.40;99.90;;;;;;4950370;29;20493;-75
2022/12/02 12:31:02;;;;;;;17.25;7.75;;;7.40;99.90;;;;;;4950538;29;20047;-76
2022/12/02 12:33:28;;;;;;;14.73;7.18;;;7.10;99.90;;;;;;4950564;29;20438;-76
2022/12/02 12:35:55;;;;;;;16.58;6.97;;;7.20;99.90;;;;;;4950888;29;20430;-77
2022/12/02 12:38:22;;;;;;;13.38;6.93;;;7.10;99.90;;;;;;4948903;29;20055;-77
2022/12/02 12:40:48;;;;;;;15.88;7.35;;;7.00;99.90;;;;;;4947279;29;20478;-77
2022/12/02 12:43:14;;;;;;;13.05;7.70;;;7.00;99.90;;;;;;4935408;29;20038;-77
2022/12/02 12:45:40;;;;;;;16.75;8.90;;;7.00;99.90;;;;;;4948344;29;20545;-76
2022/12/02 12:48:06;;;;;;;17.80;9.52;;;7.10;99.90;;;;;;4949419;29;20043;-77
2022/12/02 12:50:32;;;;;;;17.23;9.85;;;7.10;99.90;;;;;;4969042;28;20077;-77
2022/12/02 12:52:58;;;;;;;19.98;10.38;;;7.10;99.90;;;;;;4972405;28;20065;-74
2022/12/02 12:55:24;;;;;;;20.02;10.32;;;7.20;99.90;;;;;;4972039;28;20108;-75
2022/12/02 12:57:50;;;;;;;26.92;14.20;;;7.20;99.90;;;;;;4971482;28;20096;-75
2022/12/02 13:00:16;;;;;;;19.85;10.60;;;7.20;99.90;;;;;;4971686;28;20033;-76
2022/12/02 13:02:43;;;;;;;22.67;14.05;;;7.30;99.90;;;;;;4971264;28;20026;-75